Time;durP1;ratioP1;P1;durP2;ratioP2;P2;SDS_P1;SDS_P2;PMS_P1;PMS_P2;Temp;Humidity;BMP_temperature;BMP_pressure;BME280_temperature;BME280_humidity;BME280_pressure;Samples;Min_cycle;Max_cycle;Signal;HPM_P1;HPM_P2
2023/04/30 00:01:33;;;;;;;31.80;19.20;;;;;;;11.26;94.44;94329.50;5071386;28;20228;-80
2023/04/30 00:04:01;;;;;;;30.87;20.37;;;;;;;11.23;93.96;94337.75;5073047;28;20206;-80
2023/04/30 00:06:28;;;;;;;31.87;20.07;;;;;;;11.15;94.32;94339.91;5070524;28;20205;-81
2023/04/30 00:08:55;;;;;;;32.40;19.60;;;;;;;11.17;94.65;94335.28;5070773;28;20232;-81
2023/04/30 00:11:22;;;;;;;31.40;20.13;;;;;;;11.06;95.47;94336.09;5071497;28;20205;-81
2023/04/30 00:13:49;;;;;;;29.93;20.03;;;;;;;11.09;95.61;94333.03;5072118;28;20202;-81
2023/04/30 00:16:16;;;;;;;32.10;19.43;;;;;;;11.06;95.69;94334.28;5069289;28;20243;-80
2023/04/30 00:18:43;;;;;;;31.00;20.07;;;;;;;10.97;95.56;94327.06;5066907;28;20660;-83
2023/04/30 00:21:11;;;;;;;32.50;20.67;;;;;;;10.89;96.18;94330.81;5071171;28;20618;-82
2023/04/30 00:23:38;;;;;;;36.33;21.03;;;;;;;10.86;96.02;94330.44;5071235;28;20277;-80
2023/04/30 00:26:05;;;;;;;35.77;20.73;;;;;;;10.85;96.02;94329.66;5070658;28;20267;-80
2023/04/30 00:28:32;;;;;;;36.93;21.90;;;;;;;10.87;96.65;94327.66;5067213;28;20212;-81
2023/04/30 00:30:59;;;;;;;35.10;21.73;;;;;;;10.75;97.19;94324.25;5072678;28;20197;-81
2023/04/30 00:33:26;;;;;;;39.27;22.97;;;;;;;10.60;97.55;94334.31;5070199;28;20270;-81
2023/04/30 00:35:52;;;;;;;43.80;22.77;;;;;;;10.56;97.79;94331.34;5070415;28;20217;-81
2023/04/30 00:38:21;;;;;;;35.50;22.10;;;;;;;10.50;98.10;94327.09;5070413;28;20237;-81
2023/04/30 00:40:47;;;;;;;35.97;21.43;;;;;;;10.52;98.55;94337.25;5071022;28;20660;-81
2023/04/30 00:43:14;;;;;;;29.77;20.67;;;;;;;10.47;98.55;94326.75;5070651;28;20205;-81
2023/04/30 00:45:41;;;;;;;49.93;21.60;;;;;;;10.57;98.65;94339.94;5070235;28;20189;-81
2023/04/30 00:48:08;;;;;;;32.53;17.13;;;;;;;10.53;98.08;94326.63;5070721;28;20198;-81
2023/04/30 00:50:36;;;;;;;37.67;18.93;;;;;;;10.47;98.57;94319.75;5071574;28;20197;-81
2023/04/30 00:53:03;;;;;;;26.90;16.93;;;;;;;10.46;97.93;94325.94;5067678;28;20580;-82
2023/04/30 00:55:32;;;;;;;22.27;14.77;;;;;;;10.46;97.71;94327.75;5068924;28;20204;-81
2023/04/30 00:58:00;;;;;;;23.50;16.23;;;;;;;10.42;97.33;94317.00;5070629;28;20210;-81
2023/04/30 01:00:27;;;;;;;24.40;16.70;;;;;;;10.41;97.49;94325.84;5070407;28;20201;-81
2023/04/30 01:02:55;;;;;;;29.67;16.67;;;;;;;10.35;98.05;94326.72;5070680;28;20293;-81
2023/04/30 01:05:22;;;;;;;24.77;15.37;;;;;;;10.38;98.09;94317.69;5070152;28;20221;-80
2023/04/30 01:07:50;;;;;;;23.37;15.53;;;;;;;10.35;97.99;94320.75;5070955;28;20847;-81
2023/04/30 01:10:17;;;;;;;27.10;15.47;;;;;;;10.29;98.28;94319.03;5069779;28;20843;-80
2023/04/30 01:12:54;;;;;;;26.40;15.20;;;;;;;10.24;97.83;94317.88;5069786;28;20295;-81
2023/04/30 01:15:28;;;;;;;25.27;15.83;;;;;;;10.21;98.58;94314.97;5069610;28;20663;-81
2023/04/30 01:17:59;;;;;;;24.87;14.23;;;;;;;10.14;99.03;94322.06;5070407;28;20315;-80
2023/04/30 01:20:29;;;;;;;26.67;14.73;;;;;;;10.09;98.97;94324.50;5071560;28;20216;-82
2023/04/30 01:23:05;;;;;;;21.90;15.10;;;;;;;10.00;100.00;94324.03;5070084;28;21066;-80
2023/04/30 01:26:06;;;;;;;24.93;14.23;;;;;;;10.06;99.15;94323.16;5069173;28;20251;-80
2023/04/30 01:28:36;;;;;;;20.23;13.93;;;;;;;10.04;99.28;94319.97;5053105;28;20188;-78
2023/04/30 01:31:03;;;;;;;22.80;13.53;;;;;;;9.99;100.00;94317.25;5067948;28;20625;-80
2023/04/30 01:33:29;;;;;;;23.50;13.80;;;;;;;9.95;100.00;94321.31;5069978;28;20736;-79
2023/04/30 01:36:16;;;;;;;19.90;12.97;;;;;;;9.90;100.00;94318.56;5069414;28;20208;-79
2023/04/30 01:39:03;;;;;;;23.03;13.63;;;;;;;9.90;100.00;94323.78;5067104;28;20311;-79
2023/04/30 01:41:35;;;;;;;23.03;12.93;;;;;;;9.87;100.00;94324.22;5069899;28;20570;-79
2023/04/30 01:44:17;;;;;;;24.47;13.27;;;;;;;9.89;99.99;94314.41;5071555;28;20193;-82
2023/04/30 01:46:51;;;;;;;22.87;13.30;;;;;;;9.79;100.00;94324.53;5069286;28;20292;-80
2023/04/30 01:49:26;;;;;;;24.73;13.43;;;;;;;9.69;100.00;94304.31;5069496;28;20186;-81
2023/04/30 01:52:01;;;;;;;23.57;12.87;;;;;;;9.75;99.90;94328.59;5068846;28;20220;-81
2023/04/30 01:54:35;;;;;;;24.57;12.93;;;;;;;9.72;100.00;94330.84;5070140;28;20584;-80
2023/04/30 01:57:06;;;;;;;27.73;13.43;;;;;;;9.67;100.00;94316.69;5070261;28;20663;-81
2023/04/30 01:59:38;;;;;;;22.97;12.97;;;;;;;9.77;100.00;94330.94;5066333;28;20255;-80
2023/04/30 02:02:06;;;;;;;22.40;13.53;;;;;;;9.76;100.00;94326.75;5066358;28;20208;-80
2023/04/30 02:04:33;;;;;;;21.63;13.47;;;;;;;9.79;100.00;94321.13;5066533;28;20201;-80
2023/04/30 02:07:00;;;;;;;22.27;13.20;;;;;;;9.76;100.00;94314.59;5069920;28;20201;-81
2023/04/30 02:09:27;;;;;;;21.10;13.37;;;;;;;9.77;100.00;94320.56;5069073;28;20217;-80
2023/04/30 02:11:54;;;;;;;23.50;13.47;;;;;;;9.79;100.00;94324.53;5068636;28;20266;-80
2023/04/30 02:14:20;;;;;;;20.03;12.37;;;;;;;9.90;99.48;94331.56;5069631;28;20201;-79
2023/04/30 02:16:49;;;;;;;26.07;12.53;;;;;;;9.88;99.43;94323.22;5068235;28;20292;-81
2023/04/30 02:19:18;;;;;;;19.50;12.13;;;;;;;9.81;99.93;94316.53;5069175;28;20705;-79
2023/04/30 02:21:45;;;;;;;20.40;12.70;;;;;;;9.83;99.80;94325.69;5067679;28;20202;-80
2023/04/30 02:24:12;;;;;;;21.70;13.67;;;;;;;9.80;100.00;94323.53;5069950;28;20197;-81
2023/04/30 02:26:39;;;;;;;17.83;12.40;;;;;;;9.80;100.00;94322.72;5068059;28;20193;-80
2023/04/30 02:29:05;;;;;;;31.70;13.90;;;;;;;9.83;100.00;94327.47;5068515;28;20539;-81
2023/04/30 02:31:32;;;;;;;21.20;13.77;;;;;;;9.81;100.00;94325.13;5068525;28;20204;-81
2023/04/30 02:34:00;;;;;;;21.77;13.53;;;;;;;9.81;100.00;94317.34;5069767;28;20208;-81
2023/04/30 02:36:27;;;;;;;27.23;14.90;;;;;;;9.88;100.00;94318.00;5068293;28;20259;-81
2023/04/30 02:38:54;;;;;;;19.30;12.83;;;;;;;9.88;100.00;94325.00;5065372;28;20590;-82
2023/04/30 02:41:21;;;;;;;26.40;14.37;;;;;;;9.85;100.00;94315.06;5065849;28;20201;-81
2023/04/30 02:43:48;;;;;;;23.90;13.17;;;;;;;9.82;100.00;94315.50;5068254;28;20589;-81
2023/04/30 02:46:15;;;;;;;23.43;13.77;;;;;;;9.83;100.00;94319.69;5067640;28;20640;-81
2023/04/30 02:48:41;;;;;;;26.40;13.97;;;;;;;9.79;100.00;94310.75;5068113;28;20209;-81
2023/04/30 02:51:09;;;;;;;23.70;14.10;;;;;;;9.88;100.00;94314.63;5069146;28;20660;-81
2023/04/30 02:53:36;;;;;;;24.47;12.67;;;;;;;9.86;100.00;94321.84;5068851;28;20204;-81
2023/04/30 02:56:03;;;;;;;28.63;14.20;;;;;;;9.98;100.00;94325.28;5067262;28;20587;-81
2023/04/30 02:58:30;;;;;;;24.30;13.10;;;;;;;9.99;100.00;94334.63;5068381;28;20232;-81
2023/04/30 03:00:57;;;;;;;23.83;14.33;;;;;;;9.99;100.00;94332.81;5069443;28;20313;-81
2023/04/30 03:03:24;;;;;;;28.50;15.90;;;;;;;10.00;100.00;94329.22;5067763;28;20296;-81
2023/04/30 03:05:50;;;;;;;26.97;15.73;;;;;;;10.01;100.00;94336.00;5067948;28;20200;-81
2023/04/30 03:08:19;;;;;;;25.80;14.70;;;;;;;10.07;100.00;94332.50;5068140;28;20228;-81
2023/04/30 03:10:45;;;;;;;23.63;15.10;;;;;;;10.07;100.00;94342.13;5068227;28;20655;-81
2023/04/30 03:13:12;;;;;;;25.73;15.50;;;;;;;10.12;100.00;94337.03;5067904;28;20663;-81
2023/04/30 03:15:39;;;;;;;24.90;16.17;;;;;;;10.01;100.00;94338.59;5068534;28;20197;-81
2023/04/30 03:18:06;;;;;;;24.63;15.97;;;;;;;10.06;100.00;94343.91;5067542;28;20217;-80
2023/04/30 03:20:32;;;;;;;28.43;15.70;;;;;;;10.04;100.00;94335.53;5068687;28;20213;-81
2023/04/30 03:22:59;;;;;;;30.23;14.90;;;;;;;10.10;100.00;94349.47;5068400;28;20198;-81
2023/04/30 03:25:27;;;;;;;27.37;14.13;;;;;;;10.08;100.00;94347.06;5067892;28;20205;-82
2023/04/30 03:27:54;;;;;;;31.63;17.97;;;;;;;10.10;100.00;94333.88;5068721;28;20836;-81
2023/04/30 03:30:21;;;;;;;36.77;18.17;;;;;;;10.16;99.93;94338.19;5051767;28;20290;-81
2023/04/30 03:32:48;;;;;;;38.73;19.20;;;;;;;10.09;100.00;94329.69;5066968;28;20589;-82
2023/04/30 03:35:15;;;;;;;37.23;19.23;;;;;;;10.11;100.00;94349.22;5067863;28;20197;-82
2023/04/30 03:37:42;;;;;;;33.90;17.47;;;;;;;10.15;100.00;94349.63;5069361;28;20356;-81
2023/04/30 03:40:09;;;;;;;36.13;17.67;;;;;;;10.03;100.00;94336.56;5066298;28;20201;-82
2023/04/30 03:42:38;;;;;;;42.93;21.13;;;;;;;10.17;100.00;94355.38;5066244;28;20197;-82
2023/04/30 03:45:05;;;;;;;49.97;30.13;;;;;;;10.17;100.00;94358.75;5063749;28;20697;-81
2023/04/30 03:47:32;;;;;;;54.67;34.00;;;;;;;10.11;100.00;94354.41;5067126;28;20281;-81
2023/04/30 03:50:00;;;;;;;50.20;30.17;;;;;;;10.22;100.00;94369.25;5063630;28;20229;-81
2023/04/30 03:52:26;;;;;;;42.63;22.40;;;;;;;10.31;100.00;94364.53;5062405;28;20205;-81
2023/04/30 03:54:53;;;;;;;40.23;20.90;;;;;;;10.30;100.00;94369.97;5062288;28;20206;-81
2023/04/30 03:57:20;;;;;;;35.50;17.00;;;;;;;10.41;100.00;94377.00;5064411;28;20204;-81
2023/04/30 03:59:50;;;;;;;26.83;13.73;;;;;;;10.40;100.00;94384.00;5062763;28;20217;-81
2023/04/30 04:02:17;;;;;;;21.97;12.60;;;;;;;10.43;100.00;94377.56;5063203;28;20202;-81
2023/04/30 04:04:44;;;;;;;19.40;10.47;;;;;;;10.47;98.79;94382.09;5063859;28;21015;-81
2023/04/30 04:07:11;;;;;;;14.90;9.73;;;;;;;10.46;98.98;94377.09;5064482;28;20198;-81
2023/04/30 04:09:37;;;;;;;17.27;9.73;;;;;;;10.50;97.32;94383.44;5062222;28;20205;-81
2023/04/30 04:12:05;;;;;;;16.73;8.70;;;;;;;10.52;96.70;94382.22;5060873;28;20194;-80
2023/04/30 04:14:31;;;;;;;14.00;8.13;;;;;;;10.53;96.27;94381.19;5065834;28;20225;-80
2023/04/30 04:17:00;;;;;;;11.83;7.93;;;;;;;10.58;95.40;94386.50;5068159;28;20205;-80
2023/04/30 04:19:27;;;;;;;10.53;7.40;;;;;;;10.52;95.28;94381.41;5067590;28;20248;-81
2023/04/30 04:21:54;;;;;;;11.77;8.13;;;;;;;10.51;95.59;94383.22;5067701;28;20224;-81
2023/04/30 04:24:21;;;;;;;14.47;7.60;;;;;;;10.50;95.67;94388.66;5070502;28;20204;-82
2023/04/30 04:26:48;;;;;;;13.27;7.73;;;;;;;10.56;95.14;94390.34;5067462;28;20208;-82
2023/04/30 04:29:14;;;;;;;12.97;6.97;;;;;;;10.55;94.14;94386.16;5067582;28;20189;-81
2023/04/30 04:31:43;;;;;;;13.00;7.23;;;;;;;10.56;93.22;94388.53;5067993;28;20202;-81
2023/04/30 04:34:11;;;;;;;10.20;7.17;;;;;;;10.50;93.83;94386.03;5071937;28;20197;-80
2023/04/30 04:36:38;;;;;;;10.07;6.60;;;;;;;10.55;93.50;94396.56;5073145;28;20197;-80
2023/04/30 04:39:05;;;;;;;8.77;6.90;;;;;;;10.57;93.47;94399.72;5070100;28;20222;-79
2023/04/30 04:41:32;;;;;;;11.37;6.80;;;;;;;10.45;93.63;94404.88;5072954;28;20267;-80
2023/04/30 04:44:00;;;;;;;9.53;7.10;;;;;;;10.54;93.21;94389.75;5075104;28;20198;-80
2023/04/30 04:46:28;;;;;;;10.67;6.60;;;;;;;10.53;93.09;94386.41;5074203;28;20263;-81
2023/04/30 04:48:55;;;;;;;12.43;7.23;;;;;;;10.60;93.07;94396.66;5074052;28;20274;-80
2023/04/30 04:51:23;;;;;;;12.73;7.67;;;;;;;10.65;93.40;94397.56;5074406;28;20202;-81
2023/04/30 04:53:50;;;;;;;15.00;7.37;;;;;;;10.69;93.08;94396.13;5080365;28;20204;-81
2023/04/30 04:56:17;;;;;;;13.40;7.77;;;;;;;10.77;93.27;94407.97;5082359;28;20229;-81
2023/04/30 04:58:45;;;;;;;11.00;7.37;;;;;;;10.79;93.48;94414.53;5073614;28;20193;-80
2023/04/30 05:01:12;;;;;;;11.43;7.57;;;;;;;10.86;92.40;94404.03;5074641;28;20205;-81
2023/04/30 05:03:39;;;;;;;16.43;8.53;;;;;;;10.89;92.64;94419.19;5074679;28;20228;-83
2023/04/30 05:06:06;;;;;;;13.77;8.33;;;;;;;10.90;91.47;94412.19;5074859;28;20232;-84
2023/04/30 05:08:35;;;;;;;11.77;7.90;;;;;;;10.91;92.27;94408.56;5075027;28;20201;-82
2023/04/30 05:11:02;;;;;;;11.03;7.63;;;;;;;10.88;92.24;94411.63;5068413;28;20197;-83
2023/04/30 05:13:28;;;;;;;14.80;8.13;;;;;;;10.84;92.19;94408.69;5074821;28;20195;-84
2023/04/30 05:15:56;;;;;;;15.67;8.60;;;;;;;10.92;92.43;94413.53;5077936;28;20206;-82
2023/04/30 05:18:23;;;;;;;13.13;8.20;;;;;;;10.94;92.91;94413.31;5076405;28;20651;-83
2023/04/30 05:20:49;;;;;;;14.80;8.73;;;;;;;11.00;92.46;94415.00;5076096;28;20221;-82
2023/04/30 05:23:16;;;;;;;14.83;8.83;;;;;;;11.03;92.66;94419.75;5077771;28;20202;-83
2023/04/30 05:25:45;;;;;;;14.90;8.73;;;;;;;11.18;91.93;94418.28;5082602;28;20292;-83
2023/04/30 05:28:12;;;;;;;18.03;9.90;;;;;;;11.21;92.05;94414.44;5082411;28;20204;-84
2023/04/30 05:30:39;;;;;;;16.80;9.23;;;;;;;11.22;91.88;94411.63;5076605;28;20653;-85
2023/04/30 05:33:06;;;;;;;15.83;9.00;;;;;;;11.35;91.61;94415.78;5073651;28;20267;-83
2023/04/30 05:35:34;;;;;;;15.80;9.50;;;;;;;11.49;90.04;94413.72;5072760;28;20676;-82
2023/04/30 05:38:01;;;;;;;16.73;9.63;;;;;;;11.45;90.16;94420.41;5074006;28;20236;-83
2023/04/30 05:40:28;;;;;;;17.70;11.10;;;;;;;11.39;90.68;94406.50;5073641;28;20238;-83
2023/04/30 05:42:57;;;;;;;18.70;10.03;;;;;;;11.33;90.93;94400.41;5072754;28;20266;-83
2023/04/30 05:45:23;;;;;;;25.20;9.70;;;;;;;11.48;91.24;94412.94;5071670;28;20224;-82
2023/04/30 05:47:50;;;;;;;14.33;9.87;;;;;;;11.55;91.16;94415.41;5073302;28;20671;-82
2023/04/30 05:50:17;;;;;;;13.20;9.57;;;;;;;11.64;90.52;94414.84;5076700;28;20205;-82
2023/04/30 05:52:44;;;;;;;18.30;10.17;;;;;;;11.67;90.35;94414.38;5072940;28;20193;-82
2023/04/30 05:55:11;;;;;;;15.40;9.50;;;;;;;11.68;90.58;94405.56;5072440;28;20209;-82
2023/04/30 05:57:38;;;;;;;17.80;10.47;;;;;;;11.76;90.70;94413.03;5074394;28;20682;-82
2023/04/30 06:00:08;;;;;;;17.33;9.80;;;;;;;11.87;89.99;94421.81;5073410;28;20221;-82
2023/04/30 06:02:38;;;;;;;24.50;10.87;;;;;;;11.92;89.29;94422.69;5071859;28;20201;-84
2023/04/30 06:05:07;;;;;;;18.27;10.57;;;;;;;11.95;88.80;94427.44;5073034;28;20209;-81
2023/04/30 06:07:34;;;;;;;16.47;9.93;;;;;;;12.03;88.26;94428.91;5072436;28;20251;-81
2023/04/30 06:10:01;;;;;;;16.57;10.30;;;;;;;12.02;88.04;94431.72;5071296;28;20189;-81
2023/04/30 06:12:28;;;;;;;18.60;10.93;;;;;;;12.03;88.09;94428.91;5071953;28;20201;-80
2023/04/30 06:14:55;;;;;;;15.03;10.63;;;;;;;12.11;87.67;94433.75;5075513;28;20208;-80
2023/04/30 06:17:23;;;;;;;23.27;11.90;;;;;;;12.08;87.32;94433.41;5078091;28;20185;-81
2023/04/30 06:19:50;;;;;;;20.80;10.90;;;;;;;12.15;87.40;94431.47;5074991;28;20245;-81
2023/04/30 06:22:17;;;;;;;19.50;12.57;;;;;;;12.25;87.37;94432.44;5072340;28;20671;-81
2023/04/30 06:24:44;;;;;;;21.07;14.00;;;;;;;12.36;87.39;94436.81;5076363;28;20205;-83
2023/04/30 06:27:11;;;;;;;27.43;16.57;;;;;;;12.43;86.45;94428.84;5078150;28;20286;-85
2023/04/30 06:29:37;;;;;;;30.80;17.40;;;;;;;12.50;86.18;94438.09;5076572;28;20197;-82
2023/04/30 06:32:06;;;;;;;23.50;15.70;;;;;;;12.53;85.89;94440.22;5067644;28;20217;-84
2023/04/30 06:34:35;;;;;;;25.30;14.40;;;;;;;12.55;85.65;94437.41;5066056;28;20655;-80
2023/04/30 06:37:02;;;;;;;21.63;11.80;;;;;;;12.62;85.58;94448.47;5071719;28;20667;-88
2023/04/30 06:39:29;;;;;;;17.17;11.20;;;;;;;12.61;84.61;94443.50;5067823;28;20279;-86
2023/04/30 06:41:56;;;;;;;21.63;10.73;;;;;;;12.58;85.36;94442.16;5072441;28;20209;-87
2023/04/30 06:44:23;;;;;;;17.27;10.07;;;;;;;12.68;84.76;94444.13;5073225;28;20205;-86
2023/04/30 06:46:50;;;;;;;16.77;9.30;;;;;;;12.72;84.26;94437.41;5072052;28;20206;-86
2023/04/30 06:49:17;;;;;;;21.07;10.00;;;;;;;12.69;84.10;94430.06;5072380;28;20205;-85
2023/04/30 06:51:45;;;;;;;14.03;9.70;;;;;;;12.88;82.75;94447.84;5071580;28;20208;-87
2023/04/30 06:54:13;;;;;;;19.83;9.90;;;;;;;12.87;82.98;94429.84;5072041;28;20198;-86
2023/04/30 06:56:40;;;;;;;16.80;10.07;;;;;;;13.07;81.71;94449.22;5071258;28;20225;-86
2023/04/30 06:59:07;;;;;;;17.30;10.43;;;;;;;13.21;81.55;94441.88;5071520;28;20209;-85
2023/04/30 07:01:34;;;;;;;17.47;10.20;;;;;;;13.16;80.57;94413.06;5055890;28;20221;-86
2023/04/30 07:04:01;;;;;;;18.57;10.17;;;;;;;13.45;80.68;94445.84;5063439;28;20622;-86
2023/04/30 07:06:28;;;;;;;20.97;11.53;;;;;;;13.32;80.26;94417.50;5071114;28;20287;-86
2023/04/30 07:08:56;;;;;;;16.10;11.13;;;;;;;13.67;79.55;94448.50;5071017;28;20295;-86
2023/04/30 07:11:23;;;;;;;19.07;10.90;;;;;;;13.55;78.62;94421.72;5071435;28;20205;-86
2023/04/30 07:13:50;;;;;;;21.37;11.23;;;;;;;13.65;78.52;94419.22;5071772;28;20193;-85
2023/04/30 07:16:17;;;;;;;17.53;11.17;;;;;;;13.88;78.44;94452.19;5071563;28;20231;-85
2023/04/30 07:18:47;;;;;;;22.30;11.53;;;;;;;13.95;78.37;94455.38;5071194;28;20582;-85
2023/04/30 07:21:14;;;;;;;18.77;11.93;;;;;;;14.01;78.63;94449.97;5068789;28;20213;-83
2023/04/30 07:23:42;;;;;;;23.53;12.70;;;;;;;14.01;78.58;94454.41;5069777;28;20193;-84
2023/04/30 07:26:11;;;;;;;21.73;12.30;;;;;;;13.95;78.79;94409.16;5069220;28;20205;-83
2023/04/30 07:28:38;;;;;;;26.20;13.50;;;;;;;14.21;78.62;94457.25;5069073;28;20280;-82
2023/04/30 07:31:05;;;;;;;21.93;11.43;;;;;;;14.31;78.29;94457.38;5068232;28;20297;-84
2023/04/30 07:33:32;;;;;;;21.47;12.03;;;;;;;14.34;77.99;94461.34;5069635;28;20208;-85
2023/04/30 07:35:58;;;;;;;17.33;10.60;;;;;;;14.27;76.94;94440.59;5068999;28;20220;-84
2023/04/30 07:38:25;;;;;;;16.40;9.80;;;;;;;14.41;75.59;94457.50;5066855;28;20244;-83
2023/04/30 07:40:52;;;;;;;25.27;10.23;;;;;;;14.40;76.32;94455.16;5069503;28;20228;-83
2023/04/30 07:43:21;;;;;;;21.03;10.27;;;;;;;14.46;75.40;94459.38;5068120;28;20609;-85
2023/04/30 07:45:48;;;;;;;19.37;9.67;;;;;;;14.55;74.21;94456.06;5067436;28;20212;-84
2023/04/30 07:48:16;;;;;;;16.43;9.30;;;;;;;14.48;73.33;94452.88;5068553;28;20263;-86
2023/04/30 07:50:42;;;;;;;11.20;7.93;;;;;;;14.58;72.94;94460.00;5072171;28;20663;-85
2023/04/30 07:53:09;;;;;;;12.40;7.67;;;;;;;14.58;72.71;94457.41;5072220;28;20266;-84
2023/04/30 07:55:36;;;;;;;16.33;7.37;;;;;;;14.62;72.33;94455.88;5073620;28;20210;-83
2023/04/30 07:58:03;;;;;;;14.30;7.50;;;;;;;14.64;73.07;94459.03;5072918;28;20204;-85
2023/04/30 08:00:31;;;;;;;9.97;7.03;;;;;;;14.74;72.61;94451.28;5071815;28;21121;-85
2023/04/30 08:02:59;;;;;;;13.77;7.97;;;;;;;14.79;72.03;94451.31;5072172;28;20274;-85
2023/04/30 08:05:26;;;;;;;15.77;8.33;;;;;;;14.83;71.88;94459.47;5071956;28;20205;-84
2023/04/30 08:07:53;;;;;;;13.30;8.03;;;;;;;14.82;72.35;94465.72;5073354;28;20212;-83
2023/04/30 08:10:20;;;;;;;11.97;7.60;;;;;;;14.74;71.94;94465.16;5071843;28;20194;-86
2023/04/30 08:12:47;;;;;;;8.93;6.17;;;;;;;14.70;71.57;94471.13;5071626;28;20213;-83
2023/04/30 08:15:14;;;;;;;8.87;6.03;;;;;;;14.58;71.95;94473.09;5071109;28;20674;-82
2023/04/30 08:17:42;;;;;;;9.00;5.90;;;;;;;14.55;72.77;94469.16;5072306;28;20283;-82
2023/04/30 08:20:10;;;;;;;8.20;5.83;;;;;;;14.57;72.60;94469.69;5071184;28;20240;-85
2023/04/30 08:22:36;;;;;;;9.10;6.23;;;;;;;14.65;72.23;94471.88;5070814;28;20202;-82
2023/04/30 08:25:04;;;;;;;10.23;6.50;;;;;;;14.73;71.27;94468.81;5071356;28;20267;-82
2023/04/30 08:27:31;;;;;;;10.53;6.83;;;;;;;14.76;71.11;94470.94;5071870;28;20205;-82
2023/04/30 08:29:58;;;;;;;15.87;7.20;;;;;;;14.82;69.71;94458.69;5070355;28;20197;-82
2023/04/30 08:32:24;;;;;;;12.30;6.13;;;;;;;14.97;68.78;94468.50;5069862;28;20205;-84
2023/04/30 08:34:54;;;;;;;10.53;6.03;;;;;;;15.10;68.61;94481.16;5070868;28;20205;-84
2023/04/30 08:37:21;;;;;;;10.30;5.80;;;;;;;15.27;65.82;94463.47;5071378;28;20205;-82
2023/04/30 08:39:47;;;;;;;16.37;6.10;;;;;;;15.46;64.70;94471.72;5068436;28;20205;-80
2023/04/30 08:42:16;;;;;;;8.60;5.80;;;;;;;15.60;64.68;94475.50;5066901;28;20714;-84
2023/04/30 08:44:45;;;;;;;9.07;5.67;;;;;;;15.62;62.91;94457.72;5070071;28;20209;-82
2023/04/30 08:47:13;;;;;;;9.77;5.47;;;;;;;15.63;63.32;94467.16;5071698;28;20667;-82
2023/04/30 08:49:40;;;;;;;10.90;5.73;;;;;;;15.71;62.11;94462.22;5069984;28;20221;-80
2023/04/30 08:52:09;;;;;;;7.97;5.07;;;;;;;15.74;61.56;94459.09;5069707;28;20200;-81
2023/04/30 08:54:36;;;;;;;7.50;5.87;;;;;;;15.73;61.61;94448.84;5070624;28;20212;-82
2023/04/30 08:57:04;;;;;;;8.33;4.90;;;;;;;15.81;61.55;94448.41;5071002;28;20606;-79
2023/04/30 08:59:31;;;;;;;11.80;4.97;;;;;;;15.96;61.29;94452.91;5063833;28;20201;-86
2023/04/30 09:01:59;;;;;;;9.07;5.30;;;;;;;16.09;61.49;94453.22;5068502;28;20221;-82
2023/04/30 09:04:26;;;;;;;10.87;5.27;;;;;;;16.16;60.88;94442.50;5071330;28;20201;-81
2023/04/30 09:06:57;;;;;;;8.63;4.73;;;;;;;16.24;60.35;94428.91;5069839;28;20198;-83
2023/04/30 09:09:28;;;;;;;11.23;5.97;;;;;;;16.39;59.17;94434.19;5069661;28;21164;-82
2023/04/30 09:12:12;;;;;;;7.87;5.50;;;;;;;16.51;58.91;94426.84;5069751;28;20971;-83
2023/04/30 09:14:40;;;;;;;6.43;5.20;;;;;;;16.60;58.12;94435.03;5069638;28;20560;-82
2023/04/30 09:17:07;;;;;;;8.07;5.73;;;;;;;16.64;57.53;94430.84;5070580;28;20194;-82
2023/04/30 09:19:35;;;;;;;8.53;6.03;;;;;;;16.69;57.22;94429.00;5069722;28;20243;-81
2023/04/30 09:22:19;;;;;;;6.67;4.87;;;;;;;16.77;56.67;94422.44;5066043;28;20217;-81
2023/04/30 09:24:49;;;;;;;6.43;5.10;;;;;;;16.89;57.22;94421.16;5069040;28;20201;-81
2023/04/30 09:27:17;;;;;;;7.07;4.70;;;;;;;17.11;55.58;94410.41;5072202;28;20201;-83
2023/04/30 09:29:45;;;;;;;6.50;4.90;;;;;;;17.35;55.17;94415.84;5070650;28;20213;-84
2023/04/30 09:32:12;;;;;;;10.10;4.90;;;;;;;17.52;55.66;94408.47;5069102;28;20198;-80
2023/04/30 09:34:39;;;;;;;8.73;4.90;;;;;;;17.73;54.12;94407.41;5070218;28;20263;-84
2023/04/30 09:37:13;;;;;;;9.65;4.85;;;;;;;17.97;52.99;94408.38;5071134;28;20194;-83
2023/04/30 09:39:54;;;;;;;5.30;4.73;;;;;;;17.86;52.63;94390.28;5068470;28;20367;-82
2023/04/30 09:42:21;;;;;;;5.37;4.73;;;;;;;17.97;52.21;94411.00;5066734;28;20792;-81
2023/04/30 09:44:48;;;;;;;7.03;4.80;;;;;;;18.00;51.99;94407.84;5068266;28;20209;-82
2023/04/30 09:47:17;;;;;;;9.00;5.33;;;;;;;18.06;53.16;94406.75;5069367;28;20288;-82
2023/04/30 09:49:50;;;;;;;8.15;5.13;;;;;;;18.27;51.98;94404.78;5068079;28;20201;-83
2023/04/30 09:52:18;;;;;;;5.45;4.78;;;;;;;18.61;50.51;94407.53;5069682;28;20359;-82
2023/04/30 09:54:46;;;;;;;8.15;4.93;;;;;;;18.85;49.67;94403.13;5069872;28;21138;-81
2023/04/30 09:57:15;;;;;;;5.30;4.78;;;;;;;18.93;48.70;94405.16;5069531;28;20280;-80
2023/04/30 09:59:44;;;;;;;6.10;4.53;;;;;;;18.89;49.15;94400.75;5065515;28;20556;-80
2023/04/30 10:02:14;;;;;;;6.60;4.97;;;;;;;18.84;49.67;94391.03;5066905;28;20597;-82
2023/04/30 10:04:43;;;;;;;6.88;4.63;;;;;;;18.95;50.21;94391.75;5069481;28;20206;-82
2023/04/30 10:07:13;;;;;;;7.45;4.55;;;;;;;19.03;50.06;94385.88;5069850;28;20211;-82
2023/04/30 10:09:48;;;;;;;6.53;4.95;;;;;;;18.91;49.02;94388.88;5068064;28;20208;-82
2023/04/30 10:12:22;;;;;;;8.73;4.97;;;;;;;18.84;49.11;94395.53;5067733;28;20675;-82
2023/04/30 10:14:55;;;;;;;6.82;4.38;;;;;;;18.67;48.84;94404.56;5068777;28;20205;-84
2023/04/30 10:17:24;;;;;;;5.53;4.45;;;;;;;18.59;49.37;94402.53;5068641;28;21646;-83
2023/04/30 10:19:59;;;;;;;6.22;4.50;;;;;;;18.51;50.07;94399.69;5068886;28;20208;-81
2023/04/30 10:22:26;;;;;;;11.77;5.38;;;;;;;18.35;51.50;94424.50;5067202;28;20984;-81
2023/04/30 10:24:54;;;;;;;7.13;5.07;;;;;;;17.92;57.43;94433.91;5068232;28;21266;-81
2023/04/30 10:27:22;;;;;;;10.30;5.10;;;;;;;17.48;62.14;94446.84;5069627;28;20220;-82
2023/04/30 10:29:50;;;;;;;9.15;4.97;;;;;;;17.05;66.20;94439.53;5068371;28;20204;-81
2023/04/30 10:32:18;;;;;;;6.87;4.40;;;;;;;16.83;67.05;94445.03;5066167;28;20659;-81
2023/04/30 10:34:53;;;;;;;6.50;4.60;;;;;;;16.50;71.42;94435.78;5067991;28;20205;-80
2023/04/30 10:37:32;;;;;;;7.93;5.00;;;;;;;16.57;73.77;94438.16;5068000;28;20200;-83
2023/04/30 10:40:00;;;;;;;10.70;4.60;;;;;;;16.56;75.43;94434.78;5067975;28;20200;-82
2023/04/30 10:42:29;;;;;;;6.23;5.20;;;;;;;16.65;72.95;94421.94;5067214;28;20228;-78
2023/04/30 10:44:56;;;;;;;9.33;5.90;;;;;;;16.99;72.02;94418.53;5067495;28;21458;-82
2023/04/30 10:47:29;;;;;;;10.10;6.55;;;;;;;17.35;69.72;94419.28;5068039;28;20302;-82
2023/04/30 10:50:03;;;;;;;8.33;5.87;;;;;;;17.67;67.94;94413.72;5068085;28;20240;-81
2023/04/30 10:52:30;;;;;;;5.70;5.10;;;;;;;17.80;68.67;94402.66;5068093;28;20189;-81
2023/04/30 10:54:57;;;;;;;6.32;5.70;;;;;;;18.21;70.17;94410.38;5067244;28;20228;-77
2023/04/30 10:57:24;;;;;;;5.70;5.07;;;;;;;18.51;64.19;94410.22;5068776;28;20648;-81
2023/04/30 11:00:18;;;;;;;4.65;4.25;;;;;;;18.69;62.68;94399.84;5068717;28;20201;-83
2023/04/30 11:02:47;;;;;;;7.28;4.80;;;;;;;18.95;56.93;94410.97;5066020;28;20233;-81
2023/04/30 11:05:16;;;;;;;6.72;3.97;;;;;;;19.40;52.90;94407.16;5067525;28;20232;-80
2023/04/30 11:07:50;;;;;;;5.15;3.78;;;;;;;19.71;50.03;94412.94;5068938;28;20259;-82
2023/04/30 11:10:21;;;;;;;5.07;3.60;;;;;;;20.13;50.53;94407.69;5068102;28;20200;-82
2023/04/30 11:12:50;;;;;;;4.05;3.40;;;;;;;20.49;50.21;94405.38;5068367;28;20612;-82
2023/04/30 11:15:21;;;;;;;6.72;3.78;;;;;;;20.56;47.29;94397.91;5069129;28;20254;-81
2023/04/30 11:17:49;;;;;;;6.43;4.03;;;;;;;20.30;48.32;94413.31;5067083;28;20201;-81
2023/04/30 11:20:21;;;;;;;7.03;4.65;;;;;;;20.05;48.21;94412.81;5065396;28;20193;-82
2023/04/30 11:22:48;;;;;;;6.22;4.20;;;;;;;19.83;49.72;94406.19;5066522;28;20213;-83
2023/04/30 11:25:22;;;;;;;7.20;5.38;;;;;;;19.61;48.27;94405.91;5068780;28;20197;-82
2023/04/30 11:27:50;;;;;;;10.23;6.97;;;;;;;19.55;47.72;94403.59;5071879;28;20280;-82